createdAt,value
2018-01-24T00:00:58.653Z,7.65
2018-01-24T00:01:59.423Z,7.67
2018-01-24T00:02:58.682Z,7.66
2018-01-24T00:03:58.656Z,7.67
2018-01-24T00:04:59.398Z,7.67
2018-01-24T00:05:58.769Z,7.68
2018-01-24T00:06:58.650Z,7.68
2018-01-24T00:07:58.653Z,7.69
2018-01-24T00:08:59.394Z,7.69
2018-01-24T00:09:58.683Z,7.7
2018-01-24T00:10:59.359Z,7.7
2018-01-24T00:11:58.725Z,7.7
2018-01-24T00:12:58.731Z,7.68
2018-01-24T00:13:58.692Z,7.69
2018-01-24T00:14:58.711Z,7.73
2018-01-24T00:15:59.508Z,7.74
2018-01-24T00:16:58.709Z,7.74
2018-01-24T00:17:59.418Z,7.71
2018-01-24T00:18:58.746Z,7.73
2018-01-24T00:20:00.731Z,7.73
2018-01-24T00:20:58.711Z,7.73
2018-01-24T00:21:58.775Z,7.73
2018-01-24T00:22:59.261Z,7.73
2018-01-24T00:23:58.859Z,7.73
2018-01-24T00:24:58.705Z,7.73
2018-01-24T00:25:58.729Z,7.73
2018-01-24T00:26:59.203Z,7.73
2018-01-24T00:27:58.695Z,7.73
2018-01-24T00:28:58.758Z,7.74
2018-01-24T00:29:59.483Z,7.73
2018-01-24T00:30:58.832Z,7.76
2018-01-24T00:31:58.663Z,7.77
2018-01-24T00:32:58.767Z,7.79
2018-01-24T00:33:58.855Z,7.79
2018-01-24T00:34:58.698Z,7.79
2018-01-24T00:35:59.461Z,7.78
2018-01-24T00:37:00.955Z,7.79
2018-01-24T00:37:58.688Z,7.78
2018-01-24T00:38:59.208Z,7.8
2018-01-24T00:39:58.764Z,7.83
2018-01-24T00:40:59.429Z,7.83
2018-01-24T00:41:58.778Z,7.84
2018-01-24T00:42:58.726Z,7.84
2018-01-24T00:43:58.733Z,7.84
2018-01-24T00:44:58.736Z,7.87
2018-01-24T00:45:58.728Z,7.86
2018-01-24T00:46:59.605Z,7.86
2018-01-24T00:47:58.757Z,7.86
2018-01-24T00:48:58.862Z,7.87
2018-01-24T00:49:58.743Z,7.86
2018-01-24T00:50:58.746Z,7.85
2018-01-24T00:51:58.806Z,7.85
2018-01-24T00:52:58.771Z,7.83
2018-01-24T00:53:59.727Z,7.82
2018-01-24T00:54:58.739Z,7.82
2018-01-24T00:55:58.762Z,7.81
2018-01-24T00:56:59.201Z,7.81
2018-01-24T00:57:58.785Z,7.81
2018-01-24T00:58:58.756Z,7.79
2018-01-24T00:59:59.267Z,7.8
2018-01-24T01:00:58.771Z,7.79
2018-01-24T01:01:58.756Z,7.79
2018-01-24T01:02:58.733Z,7.8
2018-01-24T01:03:58.800Z,7.79
2018-01-24T01:04:58.883Z,7.8
2018-01-24T01:05:58.752Z,7.79
2018-01-24T01:06:58.747Z,7.79
2018-01-24T01:07:58.779Z,7.79
2018-01-24T01:08:58.749Z,7.78
2018-01-24T01:09:58.771Z,7.78
2018-01-24T01:10:58.786Z,7.79
2018-01-24T01:11:58.829Z,7.8
2018-01-24T01:12:59.432Z,7.8
2018-01-24T01:13:58.783Z,7.8
2018-01-24T01:14:59.507Z,7.8
2018-01-24T01:15:58.797Z,7.8
2018-01-24T01:16:58.779Z,7.79
2018-01-24T01:17:58.894Z,7.79
2018-01-24T01:18:59.727Z,7.8
2018-01-24T01:19:59.408Z,7.8
2018-01-24T01:20:58.786Z,7.78
2018-01-24T01:21:58.838Z,7.78
2018-01-24T01:22:58.751Z,7.79
2018-01-24T01:23:59.439Z,7.79
2018-01-24T01:24:58.771Z,7.79
2018-01-24T01:25:58.890Z,7.79
2018-01-24T01:26:58.775Z,7.79
2018-01-24T01:27:58.800Z,7.79
2018-01-24T01:28:58.805Z,7.8
2018-01-24T01:29:58.763Z,7.79
2018-01-24T01:30:58.784Z,7.8
2018-01-24T01:31:59.535Z,7.81
2018-01-24T01:32:58.783Z,7.8
2018-01-24T01:33:58.862Z,7.8
2018-01-24T01:34:58.832Z,7.8
2018-01-24T01:35:58.775Z,7.83
2018-01-24T01:36:59.290Z,7.82
2018-01-24T01:37:59.767Z,7.83
2018-01-24T01:38:58.948Z,7.84
2018-01-24T01:39:58.761Z,7.83
2018-01-24T01:40:58.830Z,7.84
2018-01-24T01:41:59.047Z,7.83
2018-01-24T01:42:59.606Z,7.83
2018-01-24T01:43:58.955Z,7.83
2018-01-24T01:44:58.959Z,7.82
2018-01-24T01:45:58.953Z,7.84
2018-01-24T01:46:59.042Z,7.83
2018-01-24T01:47:59.633Z,7.84
2018-01-24T01:48:59.194Z,7.83
2018-01-24T01:49:58.970Z,7.82
2018-01-24T01:50:59.634Z,7.84
2018-01-24T01:51:58.997Z,7.83
2018-01-24T01:52:58.922Z,7.83
2018-01-24T01:53:58.959Z,7.83
2018-01-24T01:54:58.965Z,7.86
2018-01-24T01:55:58.948Z,7.86
2018-01-24T01:56:58.956Z,7.85
2018-01-24T01:57:58.923Z,7.86
2018-01-24T01:58:58.941Z,7.85
2018-01-24T01:59:58.951Z,7.85
2018-01-24T02:00:59.172Z,7.85
2018-01-24T02:01:58.952Z,7.86
2018-01-24T02:02:58.931Z,7.88
2018-01-24T02:03:58.935Z,7.87
2018-01-24T02:04:58.912Z,7.87
2018-01-24T02:05:58.951Z,7.87
2018-01-24T02:06:58.932Z,7.89
2018-01-24T02:07:58.940Z,7.9
2018-01-24T02:08:58.945Z,7.89
2018-01-24T02:09:58.942Z,7.9
2018-01-24T02:10:58.974Z,7.9
2018-01-24T02:11:59.009Z,7.9
2018-01-24T02:12:58.971Z,7.89
2018-01-24T02:13:58.960Z,7.88
2018-01-24T02:14:59.589Z,7.88
2018-01-24T02:15:59.318Z,7.89
2018-01-24T02:16:58.953Z,7.89
2018-01-24T02:17:58.987Z,7.89
2018-01-24T02:18:58.969Z,7.88
2018-01-24T02:19:58.975Z,7.88
2018-01-24T02:20:59.005Z,7.89
2018-01-24T02:21:59.009Z,7.9
2018-01-24T02:22:58.969Z,7.9
2018-01-24T02:23:59.028Z,7.94
2018-01-24T02:24:58.970Z,7.94
2018-01-24T02:25:59.003Z,7.94
2018-01-24T02:26:59.021Z,7.93
2018-01-24T02:27:58.990Z,7.94
2018-01-24T02:28:58.958Z,7.92
2018-01-24T02:29:58.982Z,7.93
2018-01-24T02:30:58.950Z,7.93
2018-01-24T02:31:58.974Z,7.97
2018-01-24T02:32:59.677Z,7.97
2018-01-24T02:33:58.959Z,8.01
2018-01-24T02:34:58.947Z,8.02
2018-01-24T02:35:58.969Z,8.01
2018-01-24T02:36:58.967Z,8
2018-01-24T02:37:59.267Z,8
2018-01-24T02:38:58.965Z,8.01
2018-01-24T02:39:58.994Z,8.02
2018-01-24T02:40:58.986Z,8
2018-01-24T02:41:59.010Z,7.99
2018-01-24T02:42:59.013Z,8.02
2018-01-24T02:43:58.982Z,8.01
2018-01-24T02:44:59.019Z,8.01
2018-01-24T02:45:59.004Z,8.01
2018-01-24T02:46:59.005Z,8.02
2018-01-24T02:47:58.996Z,8.03
2018-01-24T02:48:59.037Z,8.04
2018-01-24T02:49:59.000Z,8.02
2018-01-24T02:50:58.982Z,8.04
2018-01-24T02:51:58.992Z,8.02
2018-01-24T02:52:58.998Z,8.04
2018-01-24T02:53:59.014Z,8.03
2018-01-24T02:54:58.991Z,8.03
2018-01-24T02:55:58.998Z,8.03
2018-01-24T02:56:59.019Z,8.01
2018-01-24T02:57:59.011Z,8.02
2018-01-24T02:58:59.012Z,8.01
2018-01-24T02:59:59.026Z,8.02
2018-01-24T03:00:59.019Z,8
2018-01-24T03:01:59.016Z,7.99
2018-01-24T03:02:58.997Z,7.99
2018-01-24T03:03:59.017Z,7.99
2018-01-24T03:04:59.005Z,7.99
2018-01-24T03:05:58.996Z,8
2018-01-24T03:06:59.030Z,7.99
2018-01-24T03:07:59.039Z,8
2018-01-24T03:08:58.996Z,8
2018-01-24T03:09:58.994Z,8.03
2018-01-24T03:10:58.988Z,8.05
2018-01-24T03:11:59.104Z,8.05
2018-01-24T03:12:59.113Z,8.04
2018-01-24T03:13:59.043Z,8.05
2018-01-24T03:14:59.021Z,8.05
2018-01-24T03:15:59.039Z,8.04
2018-01-24T03:16:59.029Z,8.06
2018-01-24T03:17:59.042Z,8.06
2018-01-24T03:18:59.064Z,8.06
2018-01-24T03:19:59.050Z,8.05
2018-01-24T03:20:59.028Z,8.07
2018-01-24T03:21:59.018Z,8.07
2018-01-24T03:22:59.066Z,8.07
2018-01-24T03:24:59.549Z,8.06
2018-01-24T03:25:59.041Z,8.05
2018-01-24T03:26:59.058Z,8.06
2018-01-24T03:27:59.010Z,8.06
2018-01-24T03:28:59.033Z,8.06
2018-01-24T03:29:59.051Z,8.05
2018-01-24T03:30:59.061Z,8.06
2018-01-24T03:31:59.048Z,8.06
2018-01-24T03:32:59.035Z,8.07
2018-01-24T03:33:59.047Z,8.08
2018-01-24T03:34:59.045Z,8.08
2018-01-24T03:35:59.045Z,8.08
2018-01-24T03:36:59.016Z,8.08
2018-01-24T03:37:59.024Z,8.07
2018-01-24T03:38:59.011Z,8.08
2018-01-24T03:39:59.010Z,8.08
2018-01-24T03:40:59.042Z,8.08
2018-01-24T03:41:59.080Z,8.09
2018-01-24T03:42:59.079Z,8.08
2018-01-24T03:43:59.082Z,8.07
2018-01-24T03:44:59.116Z,8.07
2018-01-24T03:45:59.057Z,8.06
2018-01-24T03:46:59.062Z,8.05
2018-01-24T03:47:59.092Z,8.04
2018-01-24T03:48:59.076Z,8.03
2018-01-24T03:49:59.084Z,8.02
2018-01-24T03:50:59.114Z,8.03
2018-01-24T03:51:59.079Z,8.02
2018-01-24T03:52:59.087Z,8
2018-01-24T03:53:59.064Z,8
2018-01-24T03:54:59.087Z,7.99
2018-01-24T03:55:59.098Z,7.98
2018-01-24T03:56:59.119Z,7.98
2018-01-24T03:57:59.067Z,7.98
2018-01-24T03:58:59.094Z,7.99
2018-01-24T03:59:59.093Z,7.98
2018-01-24T04:00:59.097Z,7.98
2018-01-24T04:01:59.101Z,7.99
2018-01-24T04:02:59.056Z,7.97
2018-01-24T04:03:59.102Z,7.98
2018-01-24T04:04:59.095Z,7.99
2018-01-24T04:05:59.100Z,7.99
2018-01-24T04:06:59.112Z,8
2018-01-24T04:07:59.117Z,8
2018-01-24T04:08:59.103Z,8.01
2018-01-24T04:09:59.103Z,8.01
2018-01-24T04:10:59.083Z,8.01
2018-01-24T04:11:59.173Z,8.05
2018-01-24T04:12:59.111Z,8.05
2018-01-24T04:13:59.122Z,8.05
2018-01-24T04:14:59.124Z,8.05
2018-01-24T04:15:59.121Z,8.05
2018-01-24T04:16:59.117Z,8.05
2018-01-24T04:17:59.096Z,8.05
2018-01-24T04:18:59.100Z,8.04
2018-01-24T04:19:59.115Z,8.04
2018-01-24T04:20:59.144Z,8.05
2018-01-24T04:21:59.112Z,8.05
2018-01-24T04:22:59.092Z,8.06
2018-01-24T04:23:59.164Z,8.05
2018-01-24T04:24:59.096Z,8.06
2018-01-24T04:25:59.142Z,8.04
2018-01-24T04:26:59.137Z,8.04
2018-01-24T04:27:59.116Z,8.04
2018-01-24T04:28:59.134Z,8.04
2018-01-24T04:29:59.112Z,8.04
2018-01-24T04:30:59.093Z,8.04
2018-01-24T04:31:59.129Z,8.03
2018-01-24T04:32:59.133Z,8.03
2018-01-24T04:33:59.130Z,8.03
2018-01-24T04:34:59.112Z,8.03
2018-01-24T04:35:59.106Z,8.03
2018-01-24T04:36:59.109Z,8.05
2018-01-24T04:37:59.133Z,8.05
2018-01-24T04:38:59.115Z,8.05
2018-01-24T04:39:59.088Z,8.06
2018-01-24T04:40:59.093Z,8.05
2018-01-24T04:41:59.203Z,8.05
2018-01-24T04:42:59.145Z,8.06
2018-01-24T04:43:59.135Z,8.07
2018-01-24T04:44:59.157Z,8.06
2018-01-24T04:45:59.167Z,8.05
2018-01-24T04:46:59.124Z,8.06
2018-01-24T04:47:59.174Z,8.06
2018-01-24T04:48:59.184Z,8.06
2018-01-24T04:49:59.184Z,8.06
2018-01-24T04:50:59.150Z,8.06
2018-01-24T04:51:59.157Z,8.06
2018-01-24T04:52:59.158Z,8.07
2018-01-24T04:53:59.163Z,8.07
2018-01-24T04:56:59.194Z,8.06
2018-01-24T04:57:59.337Z,8.06
2018-01-24T04:58:59.188Z,8.06
2018-01-24T04:59:59.247Z,8.06
2018-01-24T05:00:59.226Z,8.06
2018-01-24T05:01:59.174Z,8.06
2018-01-24T05:02:59.390Z,8.06
2018-01-24T05:03:59.193Z,8.07
2018-01-24T05:04:59.156Z,8.07
2018-01-24T05:05:59.190Z,8.08
2018-01-24T05:06:59.195Z,8.09
2018-01-24T05:07:59.233Z,8.09
2018-01-24T05:08:59.257Z,8.11
2018-01-24T05:09:59.147Z,8.1
2018-01-24T05:10:59.180Z,8.1
2018-01-24T05:11:59.283Z,8.11
2018-01-24T05:12:59.210Z,8.1
2018-01-24T05:13:59.252Z,8.1
2018-01-24T05:14:59.216Z,8.09
2018-01-24T05:15:59.188Z,8.08
2018-01-24T05:16:59.186Z,8.1
2018-01-24T05:17:59.183Z,8.09
2018-01-24T05:18:59.257Z,8.1
2018-01-24T05:19:59.197Z,8.1
2018-01-24T05:20:59.223Z,8.11
2018-01-24T05:21:59.204Z,8.13
2018-01-24T05:22:59.184Z,8.14
2018-01-24T05:23:59.202Z,8.14
2018-01-24T05:24:59.315Z,8.15
2018-01-24T05:25:59.179Z,8.16
2018-01-24T05:26:59.209Z,8.16
2018-01-24T05:27:59.195Z,8.15
2018-01-24T05:28:59.184Z,8.15
2018-01-24T05:29:59.217Z,8.14
2018-01-24T05:30:59.229Z,8.14
2018-01-24T05:31:59.209Z,8.15
2018-01-24T05:32:59.201Z,8.15
2018-01-24T05:33:59.207Z,8.14
2018-01-24T05:34:59.277Z,8.14
2018-01-24T05:35:59.989Z,8.14
2018-01-24T05:36:59.239Z,8.14
2018-01-24T05:37:59.194Z,8.13
2018-01-24T05:38:59.178Z,8.13
2018-01-24T05:39:59.240Z,8.12
2018-01-24T05:40:59.222Z,8.13
2018-01-24T05:41:59.255Z,8.13
2018-01-24T05:42:59.253Z,8.14
2018-01-24T05:43:59.238Z,8.15
2018-01-24T05:44:59.249Z,8.14
2018-01-24T05:45:59.221Z,8.14
2018-01-24T05:46:59.233Z,8.15
2018-01-24T05:47:59.255Z,8.13
2018-01-24T05:48:59.229Z,8.13
2018-01-24T05:49:59.275Z,8.14
2018-01-24T05:50:59.235Z,8.13
2018-01-24T05:51:59.222Z,8.14
2018-01-24T05:52:59.263Z,8.12
2018-01-24T05:53:59.272Z,8.13
2018-01-24T05:54:59.238Z,8.13
2018-01-24T05:55:59.244Z,8.13
2018-01-24T05:56:59.269Z,8.14
2018-01-24T05:57:59.282Z,8.13
2018-01-24T05:58:59.261Z,8.13
2018-01-24T05:59:59.461Z,8.15
2018-01-24T06:00:59.249Z,8.14
2018-01-24T06:01:59.247Z,8.13
2018-01-24T06:02:59.244Z,8.13
2018-01-24T06:03:59.252Z,8.13
2018-01-24T06:04:59.301Z,8.14
2018-01-24T06:05:59.250Z,8.12
2018-01-24T06:06:59.330Z,8.13
2018-01-24T06:07:59.255Z,8.11
2018-01-24T06:08:59.245Z,8.12
2018-01-24T06:09:59.265Z,8.12
2018-01-24T06:10:59.243Z,8.11
2018-01-24T06:11:59.459Z,8.1
2018-01-24T06:12:59.435Z,8.1
2018-01-24T06:13:59.370Z,8.1
2018-01-24T06:14:59.339Z,8.09
2018-01-24T06:15:59.333Z,8.09
2018-01-24T06:16:59.356Z,8.09
2018-01-24T06:17:59.356Z,8.09
2018-01-24T06:18:59.445Z,8.09
2018-01-24T06:19:59.305Z,8.09
2018-01-24T06:20:59.331Z,8.1
2018-01-24T06:21:59.341Z,8.08
2018-01-24T06:22:59.374Z,8.08
2018-01-24T06:23:59.349Z,8.08
2018-01-24T06:24:59.483Z,8.07
2018-01-24T06:25:59.346Z,8.07
2018-01-24T06:26:59.327Z,8.06
2018-01-24T06:27:59.340Z,8.06
2018-01-24T06:28:59.302Z,8.06
2018-01-24T06:29:59.364Z,8.06
2018-01-24T06:30:59.378Z,8.06
2018-01-24T06:31:59.338Z,8.05
2018-01-24T06:32:59.348Z,8.04
2018-01-24T06:33:59.336Z,8.04
2018-01-24T06:34:59.321Z,8.04
2018-01-24T06:35:59.571Z,8.03
2018-01-24T06:36:59.334Z,8.03
2018-01-24T06:37:59.341Z,8.02
2018-01-24T06:38:59.322Z,8.02
2018-01-24T06:39:59.366Z,8.01
2018-01-24T06:40:59.348Z,8.02
2018-01-24T06:41:59.564Z,8.01
2018-01-24T06:42:58.487Z,8.01
2018-01-24T06:43:58.751Z,8
2018-01-24T06:44:58.494Z,8.01
2018-01-24T06:45:58.487Z,8
2018-01-24T06:46:58.494Z,7.99
2018-01-24T06:47:58.489Z,7.99
2018-01-24T06:48:58.507Z,7.98
2018-01-24T06:49:58.530Z,7.97
2018-01-24T06:50:58.495Z,7.97
2018-01-24T06:51:58.516Z,7.98
2018-01-24T06:52:58.489Z,7.97
2018-01-24T06:53:58.471Z,7.96
2018-01-24T06:54:58.547Z,7.96
2018-01-24T06:55:58.474Z,7.95
2018-01-24T06:56:58.470Z,7.94
2018-01-24T06:57:58.595Z,7.95
2018-01-24T06:58:58.528Z,7.94
2018-01-24T06:59:59.299Z,7.94
2018-01-24T07:00:58.476Z,7.94
2018-01-24T07:01:58.489Z,7.94
2018-01-24T07:02:58.522Z,7.93
2018-01-24T07:03:58.584Z,7.94
2018-01-24T07:04:58.490Z,7.93
2018-01-24T07:05:58.563Z,7.94
2018-01-24T07:06:58.479Z,7.93
2018-01-24T07:07:58.484Z,7.93
2018-01-24T07:08:58.959Z,7.92
2018-01-24T07:09:58.526Z,7.93
2018-01-24T07:10:58.505Z,7.92
2018-01-24T07:11:58.511Z,7.92
2018-01-24T07:12:58.609Z,7.92
2018-01-24T07:13:58.639Z,7.92
2018-01-24T07:14:58.540Z,7.92
2018-01-24T07:15:58.559Z,7.91
2018-01-24T07:16:58.543Z,7.91
2018-01-24T07:17:58.528Z,7.9
2018-01-24T07:18:58.560Z,7.9
2018-01-24T07:19:58.590Z,7.9
2018-01-24T07:20:58.906Z,7.89
2018-01-24T07:21:58.520Z,7.89
2018-01-24T07:22:58.528Z,7.9
2018-01-24T07:23:58.546Z,7.89
2018-01-24T07:24:58.538Z,7.89
2018-01-24T07:25:58.612Z,7.89
2018-01-24T07:26:58.931Z,7.88
2018-01-24T07:27:58.511Z,7.88
2018-01-24T07:28:58.536Z,7.88
2018-01-24T07:29:58.537Z,7.89
2018-01-24T07:30:58.581Z,7.89
2018-01-24T07:31:58.567Z,7.89
2018-01-24T07:32:58.555Z,7.89
2018-01-24T07:33:58.534Z,7.89
2018-01-24T07:34:59.154Z,7.9
2018-01-24T07:35:58.613Z,7.9
2018-01-24T07:36:58.666Z,7.89
2018-01-24T07:37:58.534Z,7.9
2018-01-24T07:38:59.273Z,7.9
2018-01-24T07:39:58.562Z,7.9
2018-01-24T07:40:59.245Z,7.91
2018-01-24T07:41:58.533Z,7.91
2018-01-24T07:42:58.645Z,7.92
2018-01-24T07:43:58.617Z,7.91
2018-01-24T07:44:58.613Z,7.92
2018-01-24T07:45:59.399Z,7.92
2018-01-24T07:47:01.580Z,7.93
2018-01-24T07:47:58.599Z,7.93
2018-01-24T07:48:58.569Z,7.93
2018-01-24T07:49:59.155Z,7.94
2018-01-24T07:50:58.558Z,7.94
2018-01-24T07:51:59.452Z,7.95
2018-01-24T07:53:00.995Z,7.96
2018-01-24T07:53:58.613Z,7.95
2018-01-24T07:54:59.563Z,7.97
2018-01-24T07:55:58.595Z,7.97
2018-01-24T07:56:58.621Z,7.97
2018-01-24T07:57:59.441Z,7.98
2018-01-24T07:58:58.565Z,7.98
2018-01-24T07:59:58.618Z,7.99
2018-01-24T08:00:58.608Z,8.01
2018-01-24T08:01:58.632Z,8.01
2018-01-24T08:02:58.629Z,8.02
2018-01-24T08:03:58.572Z,8.04
2018-01-24T08:04:59.282Z,8.05
2018-01-24T08:05:58.635Z,8.05
2018-01-24T08:06:58.686Z,8.06
2018-01-24T08:07:58.605Z,8.06
2018-01-24T08:08:58.556Z,8.08
2018-01-24T08:09:58.646Z,8.09
2018-01-24T08:10:58.580Z,8.1
2018-01-24T08:11:58.575Z,8.12
2018-01-24T08:12:58.670Z,8.13
2018-01-24T08:13:58.677Z,8.14
2018-01-24T08:14:58.612Z,8.16
2018-01-24T08:15:58.641Z,8.16
2018-01-24T08:16:58.616Z,8.18
2018-01-24T08:17:58.722Z,8.19
2018-01-24T08:18:58.589Z,8.22
2018-01-24T08:19:58.614Z,8.23
2018-01-24T08:20:58.679Z,8.24
2018-01-24T08:21:58.619Z,8.26
2018-01-24T08:22:58.659Z,8.26
2018-01-24T08:23:58.634Z,8.28
2018-01-24T08:24:58.718Z,8.28
2018-01-24T08:25:58.645Z,8.29
2018-01-24T08:26:58.654Z,8.3
2018-01-24T08:27:58.674Z,8.32
2018-01-24T08:28:58.685Z,8.33
2018-01-24T08:29:58.629Z,8.34
2018-01-24T08:30:58.630Z,8.34
2018-01-24T08:31:58.617Z,8.36
2018-01-24T08:32:58.629Z,8.36
2018-01-24T08:33:58.904Z,8.37
2018-01-24T08:34:58.649Z,8.38
2018-01-24T08:35:58.641Z,8.4
2018-01-24T08:36:58.659Z,8.42
2018-01-24T08:37:58.754Z,8.43
2018-01-24T08:38:58.656Z,8.44
2018-01-24T08:39:58.672Z,8.46
2018-01-24T08:40:58.641Z,8.47
2018-01-24T08:41:58.635Z,8.51
2018-01-24T08:42:58.760Z,8.53
2018-01-24T08:43:58.678Z,8.54
2018-01-24T08:44:58.725Z,8.56
2018-01-24T08:45:58.724Z,8.58
2018-01-24T08:46:58.678Z,8.6
2018-01-24T08:47:58.750Z,8.64
2018-01-24T08:48:58.679Z,8.65
2018-01-24T08:49:58.742Z,8.68
2018-01-24T08:50:58.738Z,8.69
2018-01-24T08:51:58.678Z,8.71
2018-01-24T08:52:58.695Z,8.72
2018-01-24T08:53:58.698Z,8.73
2018-01-24T08:54:58.723Z,8.73
2018-01-24T08:55:58.950Z,8.74
2018-01-24T08:56:58.688Z,8.79
2018-01-24T08:57:58.682Z,8.79
2018-01-24T08:58:58.703Z,8.8
2018-01-24T08:59:58.684Z,8.82
2018-01-24T09:00:58.758Z,8.84
2018-01-24T09:01:58.699Z,8.85
2018-01-24T09:02:58.694Z,8.86
2018-01-24T09:03:58.700Z,8.85
2018-01-24T09:04:58.707Z,8.86
2018-01-24T09:05:58.684Z,8.87
2018-01-24T09:06:58.742Z,8.89
2018-01-24T09:07:58.726Z,8.92
2018-01-24T09:08:58.693Z,8.91
2018-01-24T09:09:58.737Z,8.91
2018-01-24T09:10:58.696Z,8.9
2018-01-24T09:11:58.714Z,8.91
2018-01-24T09:12:59.820Z,8.92
2018-01-24T09:13:58.741Z,8.92
2018-01-24T09:14:58.876Z,8.93
2018-01-24T09:15:58.727Z,8.95
2018-01-24T09:16:58.727Z,8.95
2018-01-24T09:17:58.724Z,8.95
2018-01-24T09:18:58.722Z,8.96
2018-01-24T09:19:58.782Z,8.97
2018-01-24T09:20:58.752Z,8.99
2018-01-24T09:21:58.704Z,9.02
2018-01-24T09:22:58.773Z,9.04
2018-01-24T09:23:58.737Z,9.06
2018-01-24T09:24:58.725Z,9.09
2018-01-24T09:25:58.801Z,9.13
2018-01-24T09:26:58.713Z,9.14
2018-01-24T09:27:58.725Z,9.16
2018-01-24T09:28:58.716Z,9.17
2018-01-24T09:29:58.708Z,9.2
2018-01-24T09:30:58.844Z,9.22
2018-01-24T09:31:59.510Z,9.23
2018-01-24T09:32:59.764Z,9.24
2018-01-24T09:34:00.035Z,9.25
2018-01-24T09:34:59.231Z,9.27
2018-01-24T09:35:59.532Z,9.29
2018-01-24T09:36:59.801Z,9.32
2018-01-24T09:38:00.110Z,9.36
2018-01-24T09:38:59.232Z,9.36
2018-01-24T09:39:59.827Z,9.38
2018-01-24T09:41:00.131Z,9.4
2018-01-24T09:41:59.351Z,9.39
2018-01-24T09:42:59.487Z,9.39
2018-01-24T09:43:58.874Z,9.47
2018-01-24T09:44:59.932Z,9.55
2018-01-24T09:45:59.287Z,9.57
2018-01-24T09:46:59.611Z,9.61
2018-01-24T09:47:59.925Z,9.63
2018-01-24T09:48:58.926Z,9.67
2018-01-24T09:49:59.733Z,9.74
2018-01-24T09:50:59.964Z,9.74
2018-01-24T09:52:00.214Z,9.75
2018-01-24T09:52:59.354Z,9.78
2018-01-24T09:53:59.398Z,9.79
2018-01-24T09:54:59.926Z,9.83
2018-01-24T09:55:59.576Z,9.83
2018-01-24T09:56:59.899Z,9.85
2018-01-24T09:58:00.238Z,9.86
2018-01-24T09:58:58.841Z,9.93
2018-01-24T09:59:59.541Z,9.94
2018-01-24T10:00:59.823Z,9.97
2018-01-24T10:02:00.113Z,10
2018-01-24T10:03:00.220Z,10
2018-01-24T10:03:59.441Z,10.01
2018-01-24T10:04:58.818Z,10
2018-01-24T10:05:59.447Z,10.06
2018-01-24T10:07:00.000Z,10.07
2018-01-24T10:07:59.447Z,10.07
2018-01-24T10:08:59.943Z,10.08
2018-01-24T10:09:58.813Z,10.11
2018-01-24T10:10:59.604Z,10.1
2018-01-24T10:11:59.813Z,10.14
2018-01-24T10:12:59.900Z,10.24
2018-01-24T10:14:00.244Z,10.25
2018-01-24T10:14:59.587Z,10.25
2018-01-24T10:15:59.864Z,10.28
2018-01-24T10:16:58.849Z,10.31
2018-01-24T10:17:59.749Z,10.31
2018-01-24T10:19:00.266Z,10.33
2018-01-24T10:19:59.549Z,10.37
2018-01-24T10:20:59.658Z,10.44
2018-01-24T10:21:59.911Z,10.47
2018-01-24T10:23:00.110Z,10.51
2018-01-24T10:23:59.369Z,10.54
2018-01-24T10:24:59.458Z,10.63
2018-01-24T10:25:58.928Z,10.68
2018-01-24T10:27:00.121Z,10.71
2018-01-24T10:27:59.284Z,10.75
2018-01-24T10:28:59.393Z,10.71
2018-01-24T10:29:58.785Z,10.73
2018-01-24T10:30:58.811Z,10.77
2018-01-24T10:31:59.725Z,10.82
2018-01-24T10:32:59.915Z,10.86
2018-01-24T10:33:59.895Z,10.87
2018-01-24T10:35:00.002Z,10.9
2018-01-24T10:36:00.786Z,10.95
2018-01-24T10:36:59.869Z,10.96
2018-01-24T10:37:59.723Z,10.97
2018-01-24T10:38:59.905Z,11
2018-01-24T10:39:59.849Z,11.08
2018-01-24T10:40:59.896Z,11.08
2018-01-24T10:41:59.832Z,11.1
2018-01-24T10:42:59.929Z,11.13
2018-01-24T10:43:58.802Z,11.1
2018-01-24T10:44:59.926Z,11.08
2018-01-24T10:45:59.738Z,11.1
2018-01-24T10:46:59.345Z,11.14
2018-01-24T10:47:59.876Z,11.18
2018-01-24T10:48:59.807Z,11.21
2018-01-24T10:49:59.988Z,11.25
2018-01-24T10:50:59.905Z,11.28
2018-01-24T10:51:58.835Z,11.28
2018-01-24T10:52:59.779Z,11.3
2018-01-24T10:53:59.579Z,11.33
2018-01-24T10:54:59.715Z,11.33
2018-01-24T10:55:59.686Z,11.34
2018-01-24T10:56:59.852Z,11.37
2018-01-24T10:57:59.720Z,11.38
2018-01-24T10:58:59.601Z,11.38
2018-01-24T10:59:59.667Z,11.4
2018-01-24T11:01:00.061Z,11.39
2018-01-24T11:01:59.963Z,11.44
2018-01-24T11:02:59.867Z,11.47
2018-01-24T11:03:58.820Z,11.48
2018-01-24T11:04:59.700Z,11.55
2018-01-24T11:05:59.656Z,11.54
2018-01-24T11:06:59.882Z,11.57
2018-01-24T11:08:00.072Z,11.61
2018-01-24T11:08:59.814Z,11.64
2018-01-24T11:09:59.933Z,11.66
2018-01-24T11:10:59.728Z,11.69
2018-01-24T11:11:59.758Z,11.73
2018-01-24T11:12:58.855Z,11.77
2018-01-24T11:13:59.587Z,11.78
2018-01-24T11:14:59.825Z,11.8
2018-01-24T11:15:59.891Z,11.82
2018-01-24T11:16:59.864Z,11.86
2018-01-24T11:17:59.886Z,11.86
2018-01-24T11:19:00.073Z,11.87
2018-01-24T11:19:59.997Z,11.89
2018-01-24T11:20:59.795Z,11.93
2018-01-24T11:21:59.905Z,11.94
2018-01-24T11:23:00.598Z,11.95
2018-01-24T11:23:59.874Z,12.01
2018-01-24T11:24:59.792Z,12.01
2018-01-24T11:25:59.798Z,12.01
2018-01-24T11:26:59.906Z,12.02
2018-01-24T11:28:00.106Z,12.06
2018-01-24T11:28:59.864Z,12.1
2018-01-24T11:29:58.788Z,12.1
2018-01-24T11:30:58.776Z,12.11
2018-01-24T11:31:58.803Z,12.12
2018-01-24T11:32:58.781Z,12.14
2018-01-24T11:33:58.778Z,12.16
2018-01-24T11:34:58.795Z,12.15
2018-01-24T11:35:58.970Z,12.15
2018-01-24T11:36:58.797Z,12.17
2018-01-24T11:37:58.816Z,12.16
2018-01-24T11:38:58.799Z,12.16
2018-01-24T11:39:58.798Z,12.15
2018-01-24T11:40:58.847Z,12.16
2018-01-24T11:41:58.811Z,12.18
2018-01-24T11:42:58.806Z,12.2
2018-01-24T11:43:58.888Z,12.19
2018-01-24T11:44:58.819Z,12.22
2018-01-24T11:45:58.808Z,12.22
2018-01-24T11:46:58.790Z,12.25
2018-01-24T11:47:58.790Z,12.27
2018-01-24T11:48:58.850Z,12.28
2018-01-24T11:49:58.825Z,12.3
2018-01-24T11:50:58.998Z,12.3
2018-01-24T11:51:58.823Z,12.3
2018-01-24T11:52:58.873Z,12.28
2018-01-24T11:53:58.830Z,12.27
2018-01-24T11:54:58.816Z,12.27
2018-01-24T11:55:58.888Z,12.25
2018-01-24T11:56:58.804Z,12.22
2018-01-24T11:57:58.791Z,12.2
2018-01-24T11:58:58.817Z,12.2
2018-01-24T11:59:58.799Z,12.18
2018-01-24T12:00:58.829Z,12.18
2018-01-24T12:01:58.783Z,12.17
2018-01-24T12:02:58.846Z,12.18
2018-01-24T12:03:58.830Z,12.17
2018-01-24T12:04:58.799Z,12.17
2018-01-24T12:05:58.789Z,12.15
2018-01-24T12:06:58.785Z,12.12
2018-01-24T12:07:58.861Z,12.11
2018-01-24T12:08:58.876Z,12.13
2018-01-24T12:09:58.876Z,12.16
2018-01-24T12:10:58.808Z,12.14
2018-01-24T12:11:58.810Z,12.13
2018-01-24T12:12:58.825Z,12.14
2018-01-24T12:13:58.958Z,12.14
2018-01-24T12:14:58.906Z,12.15
2018-01-24T12:15:58.877Z,12.12
2018-01-24T12:16:58.913Z,12.12
2018-01-24T12:17:58.919Z,12.1
2018-01-24T12:18:59.234Z,12.09
2018-01-24T12:19:58.926Z,12.08
2018-01-24T12:20:58.900Z,12.08
2018-01-24T12:21:58.861Z,12.08
2018-01-24T12:22:58.879Z,12.06
2018-01-24T12:23:58.929Z,12.06
2018-01-24T12:24:58.988Z,12.05
2018-01-24T12:25:58.889Z,12.04
2018-01-24T12:26:58.887Z,12.04
2018-01-24T12:27:58.907Z,12.03
2018-01-24T12:28:58.999Z,12.03
2018-01-24T12:29:58.892Z,12.03
2018-01-24T12:30:58.914Z,12.02
2018-01-24T12:31:58.883Z,12.01
2018-01-24T12:32:58.924Z,12.02
2018-01-24T12:33:59.007Z,12.01
2018-01-24T12:34:58.954Z,12.01
2018-01-24T12:35:58.900Z,11.99
2018-01-24T12:36:58.879Z,11.99
2018-01-24T12:37:58.940Z,11.99
2018-01-24T12:38:58.930Z,11.99
2018-01-24T12:39:58.900Z,11.99
2018-01-24T12:40:58.904Z,11.98
2018-01-24T12:41:58.869Z,11.98
2018-01-24T12:42:58.903Z,11.97
2018-01-24T12:43:58.967Z,11.97
2018-01-24T12:44:59.216Z,11.96
2018-01-24T12:45:58.928Z,11.95
2018-01-24T12:46:58.945Z,11.95
2018-01-24T12:47:58.923Z,11.95
2018-01-24T12:48:58.960Z,11.95
2018-01-24T12:49:59.207Z,11.94
2018-01-24T12:50:58.933Z,11.94
2018-01-24T12:51:58.917Z,11.97
2018-01-24T12:52:58.956Z,11.98
2018-01-24T12:53:58.911Z,11.97
2018-01-24T12:54:58.960Z,11.98
2018-01-24T12:55:59.001Z,11.98
2018-01-24T12:56:58.980Z,11.98
2018-01-24T12:57:58.927Z,11.99
2018-01-24T12:58:58.934Z,11.99
2018-01-24T12:59:58.928Z,12
2018-01-24T13:00:58.943Z,11.99
2018-01-24T13:01:59.028Z,12
2018-01-24T13:02:59.026Z,12
2018-01-24T13:03:58.900Z,12.01
2018-01-24T13:04:58.927Z,12.02
2018-01-24T13:05:58.928Z,12.02
2018-01-24T13:06:58.979Z,12.03
2018-01-24T13:07:58.998Z,12.05
2018-01-24T13:08:58.937Z,12.05
2018-01-24T13:09:58.997Z,12.09
2018-01-24T13:10:58.945Z,12.09
2018-01-24T13:11:58.946Z,12.08
2018-01-24T13:12:58.943Z,12.09
2018-01-24T13:13:59.123Z,12.07
2018-01-24T13:14:59.012Z,12.08
2018-01-24T13:15:59.023Z,12.08
2018-01-24T13:16:59.086Z,12.11
2018-01-24T13:17:59.017Z,12.1
2018-01-24T13:18:59.069Z,12.09
2018-01-24T13:19:59.042Z,12.08